Time;durP1;ratioP1;P1;durP2;ratioP2;P2;SDS_P1;SDS_P2;PMS_P1;PMS_P2;Temp;Humidity;BMP_temperature;BMP_pressure;BME280_temperature;BME280_humidity;BME280_pressure;Samples;Min_cycle;Max_cycle;Signal;HPM_P1;HPM_P2
2022/10/31 00:01:00;;;;;;;15.77;8.48;;;;;;;14.56;77.85;101083.56;4149286;28;20041;-66
2022/10/31 00:03:03;;;;;;;14.02;8.05;;;;;;;14.57;77.24;101079.19;4146978;28;20278;-66
2022/10/31 00:05:07;;;;;;;15.98;8.15;;;;;;;14.55;77.56;101084.41;4147621;28;20042;-66
2022/10/31 00:07:09;;;;;;;14.13;8.65;;;;;;;14.56;76.99;101087.88;4144683;28;20150;-65
2022/10/31 00:09:12;;;;;;;15.55;8.07;;;;;;;14.53;77.22;101075.69;4144237;28;20040;-65
2022/10/31 00:11:15;;;;;;;13.07;7.70;;;;;;;14.51;77.26;101073.91;4149260;28;20038;-65
2022/10/31 00:13:18;;;;;;;16.17;8.88;;;;;;;14.48;77.35;101080.00;4148038;28;20034;-66
2022/10/31 00:15:22;;;;;;;16.98;7.90;;;;;;;14.48;77.10;101074.75;4147718;28;20118;-66
2022/10/31 00:17:25;;;;;;;17.40;9.32;;;;;;;14.43;76.65;101079.97;4148014;28;20403;-66
2022/10/31 00:19:28;;;;;;;12.88;8.38;;;;;;;14.44;77.45;101079.09;4147961;28;20427;-66
2022/10/31 00:21:32;;;;;;;13.23;8.13;;;;;;;14.43;77.08;101076.47;4148299;28;20030;-66
2022/10/31 00:23:34;;;;;;;15.90;8.63;;;;;;;14.38;77.33;101068.56;4146344;28;20050;-66
2022/10/31 00:25:39;;;;;;;19.35;8.90;;;;;;;14.40;77.47;101076.47;4148786;28;20060;-66
2022/10/31 00:27:42;;;;;;;11.70;7.28;;;;;;;14.37;77.09;101066.84;4147014;28;20041;-66
2022/10/31 00:29:46;;;;;;;19.67;9.23;;;;;;;14.36;77.38;101074.66;4124025;28;20039;-66
2022/10/31 00:31:50;;;;;;;20.65;8.07;;;;;;;14.35;77.67;101080.75;4140216;28;20439;-66
2022/10/31 00:33:53;;;;;;;15.20;9.95;;;;;;;14.32;77.46;101074.66;4147696;28;20496;-66
2022/10/31 00:35:57;;;;;;;19.05;8.80;;;;;;;14.32;77.85;101078.97;4130512;28;20053;-66
2022/10/31 00:37:59;;;;;;;14.50;7.40;;;;;;;14.30;76.80;101083.34;4146324;28;20038;-66
2022/10/31 00:40:02;;;;;;;13.20;7.68;;;;;;;14.28;77.78;101088.56;4148646;28;20057;-66
2022/10/31 00:42:06;;;;;;;18.48;8.55;;;;;;;14.27;77.69;101081.56;4146635;28;20078;-66
2022/10/31 00:44:09;;;;;;;15.50;9.45;;;;;;;14.26;76.76;101084.16;4163380;28;20060;-66
2022/10/31 00:46:12;;;;;;;11.70;6.93;;;;;;;14.23;78.11;101085.00;4147387;28;20053;-66
2022/10/31 00:48:17;;;;;;;13.10;6.78;;;;;;;14.21;77.69;101076.28;4146827;28;20038;-66
2022/10/31 00:50:20;;;;;;;12.82;6.78;;;;;;;14.14;77.35;101085.78;4146935;28;20092;-66
2022/10/31 00:52:23;;;;;;;18.15;7.90;;;;;;;14.13;77.47;101085.78;4146576;28;20570;-66
2022/10/31 00:54:26;;;;;;;13.77;6.95;;;;;;;14.15;76.92;101086.69;4129987;28;20034;-66
2022/10/31 00:56:30;;;;;;;16.20;8.43;;;;;;;14.18;77.10;101091.94;4146633;28;20431;-66
2022/10/31 00:58:36;;;;;;;16.55;7.38;;;;;;;14.24;77.60;101092.00;4131085;28;20639;-66
2022/10/31 01:00:39;;;;;;;12.00;7.63;;;;;;;14.22;77.25;101090.22;4145950;28;20105;-66
2022/10/31 01:02:42;;;;;;;13.55;7.93;;;;;;;14.24;76.92;101093.75;4146587;28;20547;-66
2022/10/31 01:04:46;;;;;;;14.27;7.55;;;;;;;14.25;77.28;101090.25;4146940;28;20545;-66
2022/10/31 01:06:49;;;;;;;14.48;7.95;;;;;;;14.23;77.12;101085.00;4146002;28;20033;-66
2022/10/31 01:08:52;;;;;;;13.30;7.63;;;;;;;14.24;77.48;101098.97;4146244;28;20034;-66
2022/10/31 01:11:07;;;;;;;15.63;7.43;;;;;;;14.25;77.78;101092.88;4130887;28;20113;-66
2022/10/31 01:13:10;;;;;;;16.27;8.18;;;;;;;14.22;77.10;101093.75;4146278;28;20037;-66
2022/10/31 01:15:15;;;;;;;11.50;7.45;;;;;;;14.22;77.59;101090.22;4145882;28;20073;-65
2022/10/31 01:17:17;;;;;;;;;;;;;;;14.11;78.08;101095.38;4147602;28;20034;-66
2022/10/31 01:19:22;;;;;;;12.35;8.02;;;;;;;14.16;78.16;101093.66;4145263;28;19921;-66
2022/10/31 01:21:28;;;;;;;14.57;7.03;;;;;;;14.18;77.83;101096.28;4146692;28;20129;-66
2022/10/31 01:23:35;;;;;;;17.05;7.55;;;;;;;14.18;77.84;101097.19;4146615;28;20104;-66
2022/10/31 01:25:37;;;;;;;16.88;8.00;;;;;;;14.17;77.80;101098.03;4146457;28;20491;-66
2022/10/31 01:27:40;;;;;;;18.55;9.85;;;;;;;14.18;77.70;101098.91;4146305;28;20077;-66
2022/10/31 01:29:43;;;;;;;14.73;8.32;;;;;;;14.15;77.12;101097.16;4146287;28;20033;-66
2022/10/31 01:31:46;;;;;;;12.18;6.90;;;;;;;14.14;77.08;101108.47;4146288;28;20037;-66
2022/10/31 01:33:50;;;;;;;11.23;7.05;;;;;;;14.13;77.55;101098.84;4121370;28;20038;-66
2022/10/31 01:35:53;;;;;;;17.20;7.88;;;;;;;14.12;77.67;101099.75;4146825;28;20040;-66
2022/10/31 01:37:58;;;;;;;16.63;7.50;;;;;;;14.08;77.92;101098.81;4130681;28;20042;-67
2022/10/31 01:40:00;;;;;;;15.73;9.15;;;;;;;14.06;77.30;101097.03;4129650;28;20089;-66
2022/10/31 01:42:03;;;;;;;13.32;7.90;;;;;;;14.05;77.99;101103.16;4147934;28;20121;-66
2022/10/31 01:44:40;;;;;;;15.57;7.85;;;;;;;14.07;78.14;101098.81;4129400;28;20090;-66
2022/10/31 01:46:45;;;;;;;;;;;;;;;13.89;78.43;101100.38;4131050;28;20042;-66
2022/10/31 01:48:48;;;;;;;12.85;7.65;;;;;;;13.92;78.20;101092.56;4145765;28;19921;-66
2022/10/31 01:50:55;;;;;;;16.10;8.40;;;;;;;13.94;78.31;101095.19;4130326;28;20479;-66
2022/10/31 01:53:02;;;;;;;14.65;8.50;;;;;;;13.93;77.46;101089.09;4146767;28;20096;-66
2022/10/31 01:55:10;;;;;;;20.52;7.65;;;;;;;13.93;78.50;101083.84;4144538;28;20165;-66
2022/10/31 01:57:15;;;;;;;22.80;8.70;;;;;;;13.97;77.73;101082.13;4146569;28;20038;-66
2022/10/31 01:59:21;;;;;;;17.85;8.43;;;;;;;14.00;77.88;101076.06;4162084;28;20109;-66
2022/10/31 02:01:43;;;;;;;16.47;7.53;;;;;;;13.98;78.20;101091.75;4146909;28;20056;-66
2022/10/31 02:04:06;;;;;;;13.65;7.75;;;;;;;13.96;77.47;101088.25;4141506;28;20348;-66
2022/10/31 02:06:19;;;;;;;15.65;8.15;;;;;;;13.94;77.39;101088.22;4146272;28;20041;-67
2022/10/31 02:08:27;;;;;;;19.73;10.02;;;;;;;13.93;78.41;101088.19;4146789;28;20064;-69
2022/10/31 02:10:34;;;;;;;11.93;7.35;;;;;;;13.93;77.83;101091.69;4146381;28;20037;-66
2022/10/31 02:12:37;;;;;;;15.30;7.88;;;;;;;13.92;78.25;101089.94;4162331;28;20037;-66
2022/10/31 02:14:41;;;;;;;9.98;5.85;;;;;;;13.90;78.06;101091.66;4143443;28;20049;-66
2022/10/31 02:16:44;;;;;;;16.07;7.23;;;;;;;13.89;77.66;101087.28;4146295;28;20113;-67
2022/10/31 02:18:47;;;;;;;13.63;7.45;;;;;;;13.90;78.03;101083.81;4145470;28;20615;-68
2022/10/31 02:21:07;;;;;;;14.60;7.97;;;;;;;13.92;77.57;101087.31;4139316;28;20096;-66
2022/10/31 02:23:59;;;;;;;12.82;7.38;;;;;;;13.91;78.44;101087.31;4144739;28;20042;-66
2022/10/31 02:26:45;;;;;;;13.07;7.72;;;;;;;13.84;77.97;101083.75;4162789;28;20034;-66
2022/10/31 02:29:07;;;;;;;15.60;7.03;;;;;;;13.82;77.77;101082.84;4146284;28;20048;-66
2022/10/31 02:31:22;;;;;;;12.73;7.13;;;;;;;13.84;78.18;101078.50;4133789;28;20047;-65
2022/10/31 02:33:27;;;;;;;;;;;;;;;13.70;78.61;101082.75;4148321;28;20034;-66
2022/10/31 02:35:41;;;;;;;19.17;7.95;;;;;;;13.75;78.61;101070.59;4149585;28;19988;-66
2022/10/31 02:37:52;;;;;;;12.43;7.10;;;;;;;13.78;78.44;101074.13;4132268;28;20545;-66
2022/10/31 02:40:04;;;;;;;12.82;7.85;;;;;;;13.81;78.41;101068.03;4158640;28;20525;-66
2022/10/31 02:42:33;;;;;;;12.50;6.53;;;;;;;13.79;78.18;101069.75;4149963;28;20084;-66
2022/10/31 02:44:41;;;;;;;15.18;8.07;;;;;;;13.79;77.85;101072.38;4131906;28;20038;-66
2022/10/31 02:46:49;;;;;;;12.50;6.95;;;;;;;13.78;77.73;101070.63;4150644;28;20068;-66
2022/10/31 02:48:57;;;;;;;13.27;7.53;;;;;;;13.77;78.57;101076.72;4148482;28;20034;-66
2022/10/31 02:51:03;;;;;;;11.23;6.15;;;;;;;13.73;78.35;101070.56;4142019;28;20073;-66
2022/10/31 02:53:06;;;;;;;12.75;6.32;;;;;;;13.73;78.08;101072.31;4164583;28;20037;-66
2022/10/31 02:55:33;;;;;;;14.80;8.25;;;;;;;13.75;77.88;101067.97;4165368;28;20045;-66
2022/10/31 02:57:39;;;;;;;12.85;7.05;;;;;;;13.72;78.27;101067.94;4149107;28;20049;-66
2022/10/31 02:59:47;;;;;;;15.98;7.80;;;;;;;13.73;77.99;101073.19;4148384;28;20077;-66
2022/10/31 03:02:07;;;;;;;15.27;7.70;;;;;;;13.72;78.21;101066.19;4149675;28;20041;-66
2022/10/31 03:04:35;;;;;;;14.55;7.18;;;;;;;13.71;78.21;101066.19;4149126;28;20514;-66
2022/10/31 03:06:46;;;;;;;12.98;6.93;;;;;;;13.70;78.41;101067.06;4150055;28;20443;-66
2022/10/31 03:08:55;;;;;;;13.55;7.35;;;;;;;13.69;78.56;101070.53;4132060;28;20042;-65
2022/10/31 03:11:00;;;;;;;12.30;7.95;;;;;;;13.69;78.77;101070.53;4157342;28;20428;-66
2022/10/31 03:13:11;;;;;;;18.85;9.20;;;;;;;13.75;77.82;101073.19;4148776;28;20030;-66
2022/10/31 03:15:20;;;;;;;14.60;7.28;;;;;;;13.72;78.06;101075.78;4147060;28;20037;-66
2022/10/31 03:17:31;;;;;;;12.50;6.90;;;;;;;13.67;77.93;101080.06;4147987;28;20042;-66
2022/10/31 03:19:39;;;;;;;16.85;8.50;;;;;;;13.70;77.99;101069.69;4147200;28;20042;-66
2022/10/31 03:21:46;;;;;;;13.82;7.45;;;;;;;13.71;77.54;101074.91;4163291;28;20038;-66
2022/10/31 03:23:54;;;;;;;12.63;7.50;;;;;;;13.66;77.60;101075.72;4154691;28;20062;-66
2022/10/31 03:25:59;;;;;;;13.27;6.72;;;;;;;13.59;78.39;101067.81;4147784;28;20072;-65
2022/10/31 03:28:03;;;;;;;14.05;7.28;;;;;;;13.63;78.29;101075.69;4147969;28;20526;-65
2022/10/31 03:30:09;;;;;;;17.42;8.90;;;;;;;13.65;78.32;101076.56;4145218;28;20056;-66
2022/10/31 03:32:32;;;;;;;12.48;7.25;;;;;;;13.65;78.68;101079.19;4137248;28;20089;-66
2022/10/31 03:34:38;;;;;;;13.20;8.38;;;;;;;13.63;78.45;101073.06;4144906;28;20065;-66
2022/10/31 03:36:43;;;;;;;12.38;8.00;;;;;;;13.62;78.40;101074.78;4146985;28;20411;-65
2022/10/31 03:38:47;;;;;;;15.05;8.07;;;;;;;13.61;78.38;101078.28;4146759;28;20030;-66
2022/10/31 03:40:55;;;;;;;12.25;7.90;;;;;;;13.62;78.59;101074.78;4155461;28;20038;-66
2022/10/31 03:43:04;;;;;;;12.13;8.68;;;;;;;13.68;78.40;101079.22;4146592;28;20405;-65
2022/10/31 03:45:12;;;;;;;17.52;10.30;;;;;;;13.66;78.36;101078.34;4146621;28;20038;-66
2022/10/31 03:47:16;;;;;;;15.60;9.80;;;;;;;13.64;78.37;101080.03;4146590;28;20033;-66
2022/10/31 03:49:25;;;;;;;20.55;9.98;;;;;;;13.65;78.91;101079.19;4131233;28;20448;-66
2022/10/31 03:51:37;;;;;;;15.95;9.55;;;;;;;13.68;78.18;101079.22;4163046;28;20049;-66
2022/10/31 03:53:44;;;;;;;15.57;9.02;;;;;;;13.63;78.69;101075.69;4154659;28;20037;-66
2022/10/31 03:55:58;;;;;;;11.50;7.68;;;;;;;13.58;78.52;101078.22;4131208;28;20039;-66
2022/10/31 03:58:07;;;;;;;13.05;8.75;;;;;;;13.56;78.42;101075.59;4147937;28;20454;-66
2022/10/31 04:00:13;;;;;;;16.48;7.63;;;;;;;13.58;78.84;101067.78;4142246;28;20467;-66
2022/10/31 04:02:29;;;;;;;13.75;8.13;;;;;;;13.57;78.63;101072.13;4147603;28;20045;-66
2022/10/31 04:04:35;;;;;;;17.85;7.93;;;;;;;13.50;78.29;101065.06;4146982;28;20037;-66
2022/10/31 04:06:42;;;;;;;15.40;7.97;;;;;;;13.51;78.02;101068.59;4146575;28;20042;-66
2022/10/31 04:08:51;;;;;;;13.82;7.18;;;;;;;13.51;78.20;101060.75;4146206;28;20049;-65
2022/10/31 04:10:56;;;;;;;13.52;7.22;;;;;;;13.43;78.22;101069.38;4147419;28;20034;-66
2022/10/31 04:13:05;;;;;;;12.30;7.10;;;;;;;13.44;78.54;101065.88;4130044;28;20452;-66
2022/10/31 04:15:15;;;;;;;15.23;7.95;;;;;;;13.42;78.23;101065.00;4111512;28;1056303;-65
2022/10/31 04:17:22;;;;;;;10.50;6.68;;;;;;;13.44;78.36;101063.25;4127146;28;20041;-65
2022/10/31 04:19:25;;;;;;;13.70;8.02;;;;;;;13.35;78.58;101075.34;4147977;28;20092;-66
2022/10/31 04:21:30;;;;;;;14.43;7.53;;;;;;;13.35;78.25;101071.00;4164422;28;20060;-66
2022/10/31 04:23:35;;;;;;;16.63;8.52;;;;;;;13.32;78.79;101075.28;4146617;28;20046;-66
2022/10/31 04:25:45;;;;;;;16.65;9.27;;;;;;;13.33;78.57;101074.41;4163177;28;20030;-66
2022/10/31 04:27:48;;;;;;;13.40;7.75;;;;;;;13.35;78.79;101067.53;4147234;28;20030;-66
2022/10/31 04:29:51;;;;;;;12.73;7.80;;;;;;;13.32;79.01;101070.06;4140035;28;20160;-66
2022/10/31 04:31:53;;;;;;;10.80;7.05;;;;;;;13.30;79.07;101067.41;4130550;28;20042;-66
2022/10/31 04:33:56;;;;;;;11.63;7.90;;;;;;;13.33;79.09;101063.97;4148565;28;20041;-66
2022/10/31 04:35:59;;;;;;;12.77;7.45;;;;;;;13.35;78.64;101063.16;4146776;28;20408;-67
2022/10/31 04:38:03;;;;;;;18.95;8.80;;;;;;;13.30;78.39;101069.16;4145425;28;20554;-66
2022/10/31 04:40:07;;;;;;;12.00;8.30;;;;;;;13.19;78.61;101062.06;4160389;28;20042;-67
2022/10/31 04:42:40;;;;;;;14.93;8.80;;;;;;;13.04;79.58;101067.94;4129513;28;20065;-67
2022/10/31 04:44:42;;;;;;;13.80;8.57;;;;;;;13.02;78.97;101076.59;4145898;28;20536;-66
2022/10/31 04:46:45;;;;;;;15.48;8.23;;;;;;;13.04;79.31;101070.56;4131272;28;20055;-66
2022/10/31 04:48:48;;;;;;;41.92;20.38;;;;;;;13.03;79.53;101068.78;4147532;28;20066;-66
2022/10/31 04:50:51;;;;;;;35.00;18.08;;;;;;;12.95;80.13;101070.41;4147509;28;20078;-67
2022/10/31 04:52:55;;;;;;;20.48;14.13;;;;;;;12.83;80.40;101071.13;4159585;28;20037;-67
2022/10/31 04:55:03;;;;;;;21.65;11.75;;;;;;;12.71;80.22;101076.16;4121453;28;20061;-66
2022/10/31 04:57:24;;;;;;;21.67;11.82;;;;;;;12.63;80.58;101073.44;4142585;28;20092;-66
2022/10/31 04:59:27;;;;;;;19.27;10.23;;;;;;;12.66;80.21;101085.63;4131343;28;20556;-66
2022/10/31 05:01:30;;;;;;;21.42;10.90;;;;;;;12.65;80.10;101081.28;4133893;28;20105;-66
2022/10/31 05:03:35;;;;;;;18.90;9.68;;;;;;;12.60;80.22;101091.66;4146821;28;20531;-66
2022/10/31 05:05:38;;;;;;;18.55;10.27;;;;;;;12.58;80.25;101081.16;4147451;28;20496;-66
2022/10/31 05:07:41;;;;;;;19.52;9.18;;;;;;;12.66;80.30;101083.03;4145821;28;20077;-66
2022/10/31 05:09:44;;;;;;;15.45;8.40;;;;;;;12.71;79.45;101070.94;4130520;28;20042;-66
2022/10/31 05:11:50;;;;;;;15.70;8.75;;;;;;;12.77;79.38;101071.03;4131263;28;20046;-66
2022/10/31 05:14:13;;;;;;;14.25;8.77;;;;;;;12.81;78.98;101067.63;4103807;28;20542;-66
2022/10/31 05:16:39;;;;;;;15.35;8.85;;;;;;;12.80;79.06;101071.06;4127225;28;20054;-66
2022/10/31 05:19:04;;;;;;;;;;;;;;;12.68;78.91;101073.50;4131515;28;20127;-66
2022/10/31 05:21:26;;;;;;;16.85;9.90;;;;;;;12.68;78.40;101081.34;4148387;28;19927;-67
2022/10/31 05:23:34;;;;;;;18.75;9.18;;;;;;;12.74;78.25;101071.84;4146783;28;20045;-66
2022/10/31 05:25:37;;;;;;;18.05;8.43;;;;;;;12.78;78.14;101067.56;4144903;28;20496;-66
2022/10/31 05:27:42;;;;;;;20.15;8.98;;;;;;;12.81;77.67;101066.75;4148172;28;20044;-66
2022/10/31 05:29:44;;;;;;;15.30;8.95;;;;;;;12.77;77.61;101063.19;4147087;28;20057;-66
2022/10/31 05:31:47;;;;;;;17.33;9.35;;;;;;;12.79;77.66;101060.63;4146274;28;20068;-66
2022/10/31 05:34:10;;;;;;;11.85;7.55;;;;;;;12.75;77.37;101067.53;4146678;28;20816;-66
2022/10/31 05:36:35;;;;;;;;;;;;;;;12.56;77.45;101077.66;4122067;28;20111;-66
2022/10/31 05:38:45;;;;;;;19.42;9.40;;;;;;;12.61;77.36;101066.44;4163268;28;19921;-66
2022/10/31 05:40:59;;;;;;;15.32;8.82;;;;;;;12.62;77.53;101068.19;4147015;28;20048;-67
2022/10/31 05:43:04;;;;;;;12.88;8.13;;;;;;;12.63;77.47;101070.84;4129573;28;20074;-66
2022/10/31 05:45:08;;;;;;;11.45;7.70;;;;;;;12.55;77.41;101062.88;4146530;28;20344;-66
2022/10/31 05:47:26;;;;;;;11.32;7.45;;;;;;;12.52;77.44;101057.59;4146147;28;20065;-66
2022/10/31 05:50:06;;;;;;;15.30;7.50;;;;;;;12.51;77.42;101063.69;4081866;29;20103;-66
2022/10/31 05:52:11;;;;;;;12.70;7.63;;;;;;;12.57;77.29;101057.66;4119572;28;20139;-66
2022/10/31 05:54:23;;;;;;;14.10;7.75;;;;;;;12.59;77.45;101055.97;4146388;28;20125;-66
2022/10/31 05:56:25;;;;;;;12.40;8.07;;;;;;;12.59;77.03;101058.59;4141196;28;20532;-66
2022/10/31 05:58:32;;;;;;;13.10;8.07;;;;;;;12.62;77.16;101063.00;4146888;28;20092;-66
2022/10/31 06:00:39;;;;;;;18.40;8.50;;;;;;;12.61;76.92;101066.44;4143506;28;20534;-66
2022/10/31 06:02:44;;;;;;;;;;;;;;;12.46;77.04;101065.34;4162693;28;20498;-66
2022/10/31 06:05:01;;;;;;;17.38;8.48;;;;;;;12.50;77.18;101054.09;4127077;28;19931;-66
2022/10/31 06:07:04;;;;;;;20.88;9.18;;;;;;;12.54;76.76;101055.03;4142739;28;20061;-66
2022/10/31 06:09:08;;;;;;;16.55;9.18;;;;;;;12.53;76.59;101059.38;4142479;28;20092;-66
2022/10/31 06:11:11;;;;;;;16.70;9.40;;;;;;;12.50;76.59;101063.66;4127575;28;20042;-65
2022/10/31 06:13:45;;;;;;;17.23;8.93;;;;;;;12.45;76.72;101062.72;4118346;28;20392;-66
2022/10/31 06:15:54;;;;;;;16.73;9.40;;;;;;;12.37;76.99;101071.28;4128290;28;20038;-65
2022/10/31 06:18:01;;;;;;;14.45;9.48;;;;;;;12.39;77.05;101066.09;4130007;28;20057;-65
2022/10/31 06:20:09;;;;;;;18.10;10.23;;;;;;;12.40;76.72;101070.47;4145077;28;20046;-66
2022/10/31 06:22:22;;;;;;;14.98;8.60;;;;;;;12.40;76.84;101063.50;4138201;28;20058;-66
2022/10/31 06:24:25;;;;;;;13.15;9.18;;;;;;;12.43;77.02;101056.59;4146236;28;20030;-66
2022/10/31 06:26:28;;;;;;;15.27;8.80;;;;;;;12.42;76.92;101062.66;4154465;28;20038;-66
2022/10/31 06:28:31;;;;;;;15.20;8.90;;;;;;;12.44;77.06;101064.44;4148614;28;20046;-66
2022/10/31 06:30:49;;;;;;;18.73;9.82;;;;;;;12.43;76.87;101060.06;4155989;28;20070;-66
2022/10/31 06:32:53;;;;;;;17.67;10.73;;;;;;;12.45;76.56;101062.72;4140343;28;20034;-66
2022/10/31 06:34:58;;;;;;;15.68;10.02;;;;;;;12.46;76.66;101060.13;4163720;28;20068;-66
2022/10/31 06:37:01;;;;;;;14.77;8.05;;;;;;;12.45;76.50;101060.97;4146404;28;20056;-66
2022/10/31 06:39:06;;;;;;;17.95;8.80;;;;;;;12.45;76.97;101065.31;4150530;28;20034;-66
2022/10/31 06:41:09;;;;;;;18.40;8.95;;;;;;;12.49;76.93;101064.53;4144240;28;21621;-66
2022/10/31 06:43:20;;;;;;;17.05;10.25;;;;;;;12.50;76.81;101061.03;4141843;28;20121;-66
2022/10/31 06:45:22;;;;;;;17.42;9.35;;;;;;;12.54;76.68;101061.13;4147330;28;20037;-67
2022/10/31 06:47:51;;;;;;;15.77;9.77;;;;;;;12.55;76.61;101056.78;4154844;28;20036;-66
2022/10/31 06:50:25;;;;;;;18.60;8.95;;;;;;;12.55;77.29;101051.56;4155776;28;20104;-66
2022/10/31 06:52:28;;;;;;;16.67;8.23;;;;;;;12.57;77.39;101063.78;4162480;28;20045;-66
2022/10/31 06:54:31;;;;;;;13.60;8.13;;;;;;;12.62;77.36;101068.19;4163294;28;20450;-66
2022/10/31 06:56:34;;;;;;;18.52;9.25;;;;;;;12.66;77.44;101068.28;4152312;28;20121;-66
2022/10/31 06:58:37;;;;;;;20.50;9.07;;;;;;;12.67;77.63;101071.75;4154077;28;20550;-66
2022/10/31 07:00:42;;;;;;;16.58;9.00;;;;;;;12.66;77.78;101070.88;4129982;28;20042;-66
2022/10/31 07:02:57;;;;;;;16.88;9.45;;;;;;;12.70;77.88;101061.34;4162490;28;20103;-66
2022/10/31 07:05:00;;;;;;;17.70;9.13;;;;;;;12.75;78.02;101070.13;4162010;28;20459;-66
2022/10/31 07:07:03;;;;;;;17.60;9.77;;;;;;;12.78;77.68;101067.56;4146049;28;20045;-66
2022/10/31 07:09:06;;;;;;;17.45;9.48;;;;;;;12.82;77.68;101065.88;4146110;28;20045;-66
2022/10/31 07:11:09;;;;;;;13.00;8.70;;;;;;;12.86;77.55;101070.28;4145053;28;20046;-66
2022/10/31 07:13:15;;;;;;;15.10;9.57;;;;;;;12.85;77.98;101061.59;4145773;28;20033;-66
2022/10/31 07:15:25;;;;;;;17.92;11.02;;;;;;;12.93;77.89;101066.91;4162408;28;20503;-66
2022/10/31 07:17:28;;;;;;;15.60;10.02;;;;;;;12.93;77.82;101062.56;4163911;28;20033;-66
2022/10/31 07:19:36;;;;;;;14.32;8.45;;;;;;;12.98;77.91;101069.59;4148946;28;20038;-66
2022/10/31 07:21:38;;;;;;;15.38;7.90;;;;;;;12.96;78.27;101058.25;4148980;28;20049;-66
2022/10/31 07:23:42;;;;;;;19.45;11.05;;;;;;;13.06;78.20;101062.75;4148526;28;20037;-66
2022/10/31 07:26:03;;;;;;;19.05;11.27;;;;;;;13.13;78.09;101056.75;4142848;28;20508;-66
2022/10/31 07:28:14;;;;;;;18.35;11.50;;;;;;;13.20;78.44;101055.97;4148797;28;20399;-66
2022/10/31 07:30:21;;;;;;;18.73;10.80;;;;;;;13.26;78.59;101060.41;4148708;28;20423;-66
2022/10/31 07:32:27;;;;;;;15.25;9.18;;;;;;;13.30;78.64;101059.56;4148896;28;20049;-66
2022/10/31 07:34:33;;;;;;;20.27;11.18;;;;;;;13.33;78.82;101057.03;4159633;28;20038;-66
2022/10/31 07:36:56;;;;;;;23.38;11.48;;;;;;;13.44;78.20;101070.22;4133221;28;20062;-66
2022/10/31 07:39:02;;;;;;;17.40;10.20;;;;;;;13.48;78.65;101069.41;4132377;28;20129;-66
2022/10/31 07:41:06;;;;;;;22.02;11.23;;;;;;;13.51;78.28;101064.22;4148620;28;20508;-66
2022/10/31 07:43:13;;;;;;;19.05;10.48;;;;;;;13.58;78.26;101057.31;4148436;28;20054;-66
2022/10/31 07:45:34;;;;;;;22.50;11.18;;;;;;;13.65;78.91;101055.66;4148595;28;20042;-66
2022/10/31 07:47:55;;;;;;;17.27;10.85;;;;;;;13.67;78.79;101062.66;4148969;28;20038;-66
2022/10/31 07:50:18;;;;;;;19.08;10.35;;;;;;;13.68;78.17;101064.44;4149671;28;20096;-66
2022/10/31 07:52:41;;;;;;;16.27;9.05;;;;;;;13.72;78.57;101065.31;4149792;28;20518;-66
2022/10/31 07:55:04;;;;;;;15.50;9.73;;;;;;;13.75;78.79;101063.59;4149453;28;20153;-66
2022/10/31 07:57:06;;;;;;;23.50;10.40;;;;;;;13.77;78.87;101061.91;4132064;28;20054;-66
2022/10/31 07:59:09;;;;;;;14.63;8.02;;;;;;;13.79;78.63;101059.31;4148549;28;20117;-66
2022/10/31 08:01:12;;;;;;;16.10;9.60;;;;;;;13.85;78.41;101056.75;4147409;28;20037;-66
2022/10/31 08:03:23;;;;;;;20.60;10.10;;;;;;;13.86;78.47;101053.28;4164254;28;20124;-66
2022/10/31 08:05:26;;;;;;;14.68;8.98;;;;;;;13.91;78.31;101056.81;4149395;28;20042;-66
2022/10/31 08:07:48;;;;;;;14.70;10.55;;;;;;;13.98;78.12;101052.53;4149430;28;20430;-66
2022/10/31 08:09:56;;;;;;;16.65;10.77;;;;;;;14.03;78.42;101056.09;4145931;28;20527;-66
2022/10/31 08:12:04;;;;;;;17.88;11.88;;;;;;;14.08;77.75;101058.72;4154381;28;20037;-66
2022/10/31 08:14:08;;;;;;;15.95;8.82;;;;;;;14.11;78.25;101061.38;4147649;28;20038;-67
2022/10/31 08:16:11;;;;;;;21.70;9.90;;;;;;;14.16;78.20;101056.19;4164536;28;20033;-67
2022/10/31 08:18:24;;;;;;;22.58;10.82;;;;;;;14.20;77.92;101048.38;4148214;28;20051;-67
2022/10/31 08:20:27;;;;;;;19.10;10.80;;;;;;;14.30;78.12;101050.19;4147408;28;20061;-67
2022/10/31 08:22:30;;;;;;;17.40;9.48;;;;;;;14.31;77.95;101046.72;4139825;28;20389;-67
2022/10/31 08:24:35;;;;;;;16.67;9.57;;;;;;;14.34;77.46;101047.59;4147655;28;20081;-67
2022/10/31 08:26:38;;;;;;;13.95;9.75;;;;;;;14.37;77.65;101050.25;4157971;28;20427;-67
2022/10/31 08:28:44;;;;;;;17.33;9.43;;;;;;;14.41;77.41;101046.78;4145016;28;20520;-67
2022/10/31 08:30:47;;;;;;;14.70;9.38;;;;;;;14.42;78.17;101054.66;4130547;28;20125;-67
2022/10/31 08:33:11;;;;;;;15.00;10.02;;;;;;;14.44;77.37;101059.91;4143439;28;20057;-67
2022/10/31 08:35:33;;;;;;;17.65;10.02;;;;;;;14.47;77.63;101057.28;4149152;28;20042;-68
2022/10/31 08:37:59;;;;;;;16.25;9.93;;;;;;;14.50;77.89;101052.13;4148961;28;20414;-67
2022/10/31 08:40:05;;;;;;;20.60;10.50;;;;;;;14.55;77.82;101053.00;4147818;28;20065;-67
2022/10/31 08:42:09;;;;;;;16.85;9.38;;;;;;;14.58;78.07;101054.78;4164077;28;20045;-67
2022/10/31 08:44:13;;;;;;;20.95;10.20;;;;;;;14.61;77.71;101037.38;4147309;28;20046;-67
2022/10/31 08:46:19;;;;;;;15.98;9.40;;;;;;;14.67;77.95;101047.03;4146573;28;20030;-67
2022/10/31 08:48:23;;;;;;;16.90;10.55;;;;;;;14.74;77.12;101042.72;4147499;28;20447;-67
2022/10/31 08:50:26;;;;;;;20.20;11.35;;;;;;;14.79;77.07;101039.25;4147661;28;20103;-68
2022/10/31 08:52:29;;;;;;;16.48;9.68;;;;;;;14.84;77.49;101036.66;4147649;28;20041;-65
2022/10/31 08:54:52;;;;;;;17.65;9.60;;;;;;;14.86;77.66;101034.91;4147330;28;20099;-67
2022/10/31 08:57:15;;;;;;;18.33;9.82;;;;;;;14.91;77.63;101045.41;4148728;28;20042;-68
2022/10/31 08:59:21;;;;;;;19.88;10.57;;;;;;;14.93;77.20;101041.94;4147496;28;20046;-68
2022/10/31 09:01:50;;;;;;;20.05;10.70;;;;;;;14.95;77.95;101040.22;4148282;28;20037;-65
2022/10/31 09:03:53;;;;;;;22.40;12.15;;;;;;;14.94;77.43;101038.47;4147029;28;20044;-68
2022/10/31 09:05:59;;;;;;;15.18;10.98;;;;;;;14.98;77.99;101035.00;4146270;28;20038;-66
2022/10/31 09:08:06;;;;;;;12.57;10.00;;;;;;;15.04;77.43;101038.50;4127941;28;20069;-68
2022/10/31 09:10:15;;;;;;;24.90;12.20;;;;;;;15.07;77.25;101034.19;4163408;28;20096;-66
2022/10/31 09:12:20;;;;;;;20.85;11.40;;;;;;;15.09;78.08;101027.19;4130935;28;20050;-65
2022/10/31 09:14:52;;;;;;;17.65;11.60;;;;;;;15.11;77.54;101030.72;4138030;28;20116;-66
2022/10/31 09:17:06;;;;;;;23.65;13.90;;;;;;;15.11;77.76;101028.09;4147042;28;20072;-66
2022/10/31 09:19:26;;;;;;;24.05;13.63;;;;;;;15.13;78.07;101028.97;4162393;28;20068;-66
2022/10/31 09:21:29;;;;;;;19.95;13.52;;;;;;;15.16;78.22;101025.50;4163104;28;20037;-66
2022/10/31 09:23:33;;;;;;;22.27;15.05;;;;;;;15.24;77.97;101025.50;4130365;28;20566;-66
2022/10/31 09:25:36;;;;;;;20.75;15.40;;;;;;;15.22;77.40;101032.50;4145810;28;20396;-66
2022/10/31 09:28:05;;;;;;;22.83;15.32;;;;;;;15.25;77.43;101024.66;4144781;28;20042;-66
2022/10/31 09:30:09;;;;;;;23.40;17.30;;;;;;;15.30;77.81;101021.19;4146966;28;20041;-66
2022/10/31 09:32:12;;;;;;;21.27;14.38;;;;;;;15.27;77.60;101036.00;4146916;28;20499;-66
2022/10/31 09:34:20;;;;;;;21.38;13.40;;;;;;;15.23;77.64;101027.25;4162925;28;20539;-66
2022/10/31 09:36:46;;;;;;;19.40;13.82;;;;;;;15.33;76.87;101029.06;4147770;28;20073;-66
2022/10/31 09:38:53;;;;;;;21.33;14.15;;;;;;;15.44;76.73;101021.22;4146524;28;20519;-67
2022/10/31 09:41:12;;;;;;;18.50;13.43;;;;;;;15.55;75.79;101021.28;4161455;28;20041;-66
2022/10/31 09:43:26;;;;;;;21.90;12.73;;;;;;;15.62;76.30;101022.13;4146179;28;20488;-66
2022/10/31 09:45:35;;;;;;;21.00;12.70;;;;;;;15.67;76.24;101016.03;4146845;28;20033;-67
2022/10/31 09:48:09;;;;;;;19.42;12.32;;;;;;;15.75;76.05;101020.44;4146820;28;20046;-67
2022/10/31 09:50:19;;;;;;;20.27;12.40;;;;;;;15.79;76.08;101009.97;4146797;28;20095;-67
2022/10/31 09:52:30;;;;;;;20.45;12.82;;;;;;;15.88;76.07;101019.59;4146751;28;20045;-67